Time;durP1;ratioP1;P1;durP2;ratioP2;P2;SDS_P1;SDS_P2;PMS_P1;PMS_P2;Temp;Humidity;BMP_temperature;BMP_pressure;BME280_temperature;BME280_humidity;BME280_pressure;Samples;Min_cycle;Max_cycle;Signal;HPM_P1;HPM_P2
2022/02/21 00:02:06;;;;;;;1.50;1.23;;;10.10;99.90;;;;;;4854703;29;20905;-81
2022/02/21 00:04:51;;;;;;;1.63;1.20;;;10.00;99.90;;;;;;4868453;29;20414;-80
2022/02/21 00:07:35;;;;;;;2.00;1.50;;;10.10;99.90;;;;;;4864777;29;20411;-81
2022/02/21 00:10:20;;;;;;;2.40;1.30;;;10.10;99.90;;;;;;4864885;29;20845;-81
2022/02/21 00:13:04;;;;;;;1.70;1.30;;;10.00;99.90;;;;;;4864997;29;20395;-81
2022/02/21 00:15:49;;;;;;;7.03;1.90;;;10.00;99.90;;;;;;4868413;29;20411;-81
2022/02/21 00:18:33;;;;;;;1.53;1.30;;;10.00;99.90;;;;;;4868742;29;20517;-81
2022/02/21 00:21:18;;;;;;;5.73;1.60;;;9.90;99.90;;;;;;4868528;29;20837;-81
2022/02/21 00:24:03;;;;;;;2.13;1.60;;;10.00;99.90;;;;;;4854175;29;20428;-81
2022/02/21 00:26:47;;;;;;;2.83;1.70;;;9.90;99.90;;;;;;4854463;29;20464;-81
2022/02/21 00:29:32;;;;;;;2.00;1.40;;;9.80;99.90;;;;;;4868184;29;20407;-80
2022/02/21 00:32:16;;;;;;;1.83;1.57;;;9.70;99.90;;;;;;4868214;29;20461;-81
2022/02/21 00:35:00;;;;;;;2.00;1.60;;;9.60;99.90;;;;;;4867582;29;20487;-81
2022/02/21 00:37:45;;;;;;;3.67;1.40;;;9.60;99.90;;;;;;4867542;29;20900;-81
2022/02/21 00:40:30;;;;;;;3.70;1.60;;;9.50;99.90;;;;;;4867765;29;20446;-80
2022/02/21 00:43:14;;;;;;;5.40;1.83;;;9.40;99.90;;;;;;4867542;29;20402;-81
2022/02/21 00:45:59;;;;;;;2.27;1.47;;;9.40;99.90;;;;;;4867563;29;20463;-81
2022/02/21 00:48:43;;;;;;;1.33;1.13;;;9.50;99.90;;;;;;4867506;29;20406;-79
2022/02/21 00:51:28;;;;;;;3.10;1.37;;;9.30;99.90;;;;;;4867119;29;20503;-80
2022/02/21 00:54:12;;;;;;;1.93;1.80;;;9.30;99.90;;;;;;4867124;29;20411;-81
2022/02/21 00:56:57;;;;;;;4.93;1.83;;;9.30;99.90;;;;;;4866745;29;20407;-81
2022/02/21 00:59:43;;;;;;;1.57;1.20;;;9.20;99.90;;;;;;4867106;29;20395;-81
2022/02/21 01:02:29;;;;;;;2.60;1.20;;;9.20;99.90;;;;;;4866306;29;20399;-81
2022/02/21 01:05:13;;;;;;;1.43;1.07;;;9.20;99.90;;;;;;4865774;29;20395;-81
2022/02/21 01:07:58;;;;;;;4.60;1.60;;;9.20;99.90;;;;;;4867661;29;20407;-81
2022/02/21 01:10:43;;;;;;;1.53;1.37;;;9.30;99.90;;;;;;4854708;29;20450;-81
2022/02/21 01:13:28;;;;;;;1.87;1.77;;;9.30;99.90;;;;;;4867181;29;20403;-80
2022/02/21 01:16:13;;;;;;;4.80;2.00;;;9.30;99.90;;;;;;4867347;29;20406;-81
2022/02/21 01:18:58;;;;;;;2.80;1.80;;;9.40;99.90;;;;;;4867371;29;20399;-81
2022/02/21 01:21:42;;;;;;;5.23;1.80;;;9.40;99.90;;;;;;4853710;29;20448;-81
2022/02/21 01:24:27;;;;;;;1.27;1.10;;;9.40;99.90;;;;;;4867120;29;20928;-81
2022/02/21 01:27:14;;;;;;;2.57;1.53;;;9.40;99.90;;;;;;4867768;29;20407;-80
2022/02/21 01:29:59;;;;;;;1.37;1.27;;;9.50;99.90;;;;;;4853227;29;20483;-81
2022/02/21 01:32:43;;;;;;;1.27;1.10;;;9.40;99.90;;;;;;4853843;29;20386;-81
2022/02/21 01:35:28;;;;;;;5.07;1.60;;;9.40;99.90;;;;;;4871712;29;20455;-80
2022/02/21 01:38:12;;;;;;;3.27;1.63;;;9.40;99.90;;;;;;4873403;29;20402;-80
2022/02/21 01:40:57;;;;;;;5.13;1.10;;;9.40;99.90;;;;;;4873316;29;20398;-80
2022/02/21 01:43:42;;;;;;;1.60;1.20;;;9.50;99.90;;;;;;4874904;29;20412;-79
2022/02/21 01:46:26;;;;;;;2.40;1.20;;;9.50;99.90;;;;;;4873846;29;20399;-80
2022/02/21 01:49:13;;;;;;;2.90;1.83;;;9.40;99.90;;;;;;4873833;29;20475;-80
2022/02/21 01:51:58;;;;;;;1.60;1.50;;;9.50;99.90;;;;;;4873146;29;20916;-79
2022/02/21 01:54:43;;;;;;;1.30;1.20;;;9.50;99.90;;;;;;4873140;29;20474;-80
2022/02/21 01:57:27;;;;;;;2.27;1.27;;;9.50;99.90;;;;;;4873636;29;20897;-79
2022/02/21 02:00:13;;;;;;;1.40;1.30;;;9.50;99.90;;;;;;4875122;29;20456;-79
2022/02/21 02:02:57;;;;;;;4.70;1.80;;;9.50;99.90;;;;;;4874481;29;20936;-79
2022/02/21 02:05:42;;;;;;;1.10;1.00;;;9.50;99.90;;;;;;4875612;29;20377;-82
2022/02/21 02:08:27;;;;;;;1.90;1.03;;;9.50;99.90;;;;;;4858589;29;20463;-82
2022/02/21 02:11:13;;;;;;;2.30;1.10;;;9.50;99.90;;;;;;4865540;29;20992;-82
2022/02/21 02:13:58;;;;;;;1.50;1.33;;;9.60;99.90;;;;;;4866498;29;20532;-82
2022/02/21 02:16:42;;;;;;;1.60;1.30;;;9.40;99.90;;;;;;4866308;29;20448;-82
2022/02/21 02:19:27;;;;;;;4.17;1.43;;;9.50;99.90;;;;;;4865995;29;20410;-82
2022/02/21 02:22:16;;;;;;;5.60;2.63;;;9.50;99.90;;;;;;4866182;29;20425;-81
2022/02/21 02:25:01;;;;;;;2.43;1.57;;;9.50;99.90;;;;;;4866157;29;20472;-82
2022/02/21 02:27:46;;;;;;;1.40;1.00;;;9.50;99.90;;;;;;4866387;29;20468;-82
2022/02/21 02:30:31;;;;;;;3.83;1.33;;;9.40;99.90;;;;;;4866301;29;20399;-82
2022/02/21 02:33:15;;;;;;;1.30;1.10;;;9.40;99.90;;;;;;4866338;29;20431;-82
2022/02/21 02:36:00;;;;;;;1.40;1.30;;;9.40;99.90;;;;;;4864165;29;20403;-82
2022/02/21 02:38:44;;;;;;;1.90;1.57;;;9.50;99.90;;;;;;4865543;29;20402;-82
2022/02/21 02:41:29;;;;;;;2.00;1.60;;;9.50;99.90;;;;;;4851690;29;20421;-82
2022/02/21 02:44:14;;;;;;;4.70;2.93;;;9.40;99.90;;;;;;4865933;29;20475;-81
2022/02/21 02:46:59;;;;;;;2.03;1.93;;;9.30;99.90;;;;;;4865146;29;20402;-82
2022/02/21 02:49:43;;;;;;;3.00;1.00;;;9.30;99.90;;;;;;4865562;29;20434;-81
2022/02/21 02:52:27;;;;;;;1.73;1.37;;;9.30;99.90;;;;;;4865322;29;20478;-82
2022/02/21 02:55:12;;;;;;;1.50;1.10;;;9.30;99.90;;;;;;4865304;29;20519;-82
2022/02/21 02:57:57;;;;;;;1.27;1.17;;;9.30;99.90;;;;;;4865093;29;20499;-80
2022/02/21 03:00:41;;;;;;;1.20;1.10;;;9.40;99.90;;;;;;4865750;29;20488;-82
2022/02/21 03:03:25;;;;;;;1.40;1.30;;;9.30;99.90;;;;;;4865515;29;20407;-81
2022/02/21 03:06:10;;;;;;;1.17;1.07;;;9.40;99.90;;;;;;4865385;29;20455;-82
2022/02/21 03:08:55;;;;;;;1.20;1.10;;;9.40;99.90;;;;;;4865386;29;20462;-82
2022/02/21 03:11:39;;;;;;;3.57;2.23;;;9.50;99.90;;;;;;4865406;29;20964;-82
2022/02/21 03:14:25;;;;;;;1.10;1.00;;;9.50;99.90;;;;;;4864959;29;20455;-82
2022/02/21 03:17:09;;;;;;;3.00;2.13;;;9.50;99.90;;;;;;4865422;29;20767;-82
2022/02/21 03:19:54;;;;;;;2.17;1.20;;;9.50;99.90;;;;;;4865135;29;20487;-82
2022/02/21 03:22:38;;;;;;;1.73;1.17;;;9.60;99.90;;;;;;4864745;29;20440;-82
2022/02/21 03:25:23;;;;;;;1.10;1.00;;;9.60;99.90;;;;;;4865518;29;20452;-82
2022/02/21 03:28:07;;;;;;;1.27;1.10;;;9.60;99.90;;;;;;4864924;29;20414;-82
2022/02/21 03:30:52;;;;;;;1.60;1.50;;;9.60;99.90;;;;;;4864917;29;20959;-82
2022/02/21 03:33:37;;;;;;;1.40;1.30;;;9.60;99.90;;;;;;4865450;29;20481;-81
2022/02/21 03:36:21;;;;;;;1.27;1.17;;;9.60;99.90;;;;;;4865434;29;20403;-81
2022/02/21 03:39:06;;;;;;;1.33;1.00;;;8.70;99.90;;;;;;4866078;29;20499;-81
2022/02/21 03:41:51;;;;;;;3.83;1.10;;;8.00;99.90;;;;;;4865336;29;20402;-82
2022/02/21 03:44:35;;;;;;;0.90;0.90;;;7.50;99.90;;;;;;4864211;29;20399;-81
2022/02/21 03:47:20;;;;;;;2.70;1.07;;;7.20;99.90;;;;;;4864958;29;20382;-81
2022/02/21 03:50:05;;;;;;;1.20;1.10;;;6.90;99.90;;;;;;4864881;29;20491;-82
2022/02/21 03:52:50;;;;;;;1.10;1.00;;;6.70;99.90;;;;;;4865423;29;20414;-81
2022/02/21 03:55:35;;;;;;;0.90;0.90;;;6.60;99.90;;;;;;4865330;29;20999;-81
2022/02/21 03:58:19;;;;;;;5.63;1.50;;;6.40;99.90;;;;;;4864907;29;20434;-82
2022/02/21 04:01:04;;;;;;;1.40;1.13;;;6.30;99.90;;;;;;4864928;29;20508;-82
2022/02/21 04:03:48;;;;;;;1.17;1.07;;;6.20;99.90;;;;;;4863993;29;20365;-82
2022/02/21 04:06:33;;;;;;;1.23;1.13;;;6.20;99.90;;;;;;4865310;29;20847;-81
2022/02/21 04:09:17;;;;;;;1.10;1.00;;;6.00;99.90;;;;;;4865588;29;20737;-82
2022/02/21 04:12:03;;;;;;;1.63;1.30;;;6.10;99.90;;;;;;4865169;29;20451;-82
2022/02/21 04:14:48;;;;;;;1.30;1.20;;;6.00;99.90;;;;;;4865316;29;20435;-83
2022/02/21 04:17:45;;;;;;;1.70;1.40;;;6.10;99.90;;;;;;4865330;29;20875;-81
2022/02/21 04:20:30;;;;;;;2.53;1.50;;;6.20;99.90;;;;;;4863633;29;20405;-82
2022/02/21 04:23:14;;;;;;;1.30;1.20;;;6.20;99.90;;;;;;4864933;29;20209;-81
2022/02/21 04:25:59;;;;;;;1.30;1.20;;;6.30;99.90;;;;;;4863879;29;20804;-82
2022/02/21 04:28:44;;;;;;;13.50;1.80;;;6.30;99.90;;;;;;4865115;29;20374;-82
2022/02/21 04:31:28;;;;;;;2.70;1.10;;;6.20;99.90;;;;;;4863947;29;20510;-81
2022/02/21 04:34:13;;;;;;;1.37;1.27;;;6.20;99.90;;;;;;4865725;29;20813;-81
2022/02/21 04:36:57;;;;;;;3.37;1.23;;;6.10;99.90;;;;;;4866317;29;20482;-82
2022/02/21 04:39:41;;;;;;;2.53;1.20;;;6.20;99.90;;;;;;4865430;29;20473;-80
2022/02/21 04:42:26;;;;;;;1.00;1.00;;;6.20;99.90;;;;;;4866514;29;20430;-81
2022/02/21 04:45:11;;;;;;;4.43;1.30;;;6.20;99.90;;;;;;4863771;29;20460;-81
2022/02/21 04:47:55;;;;;;;0.90;0.90;;;6.20;99.90;;;;;;4869830;29;20385;-80
2022/02/21 04:50:40;;;;;;;1.40;1.00;;;6.10;99.90;;;;;;4870110;29;20418;-81
2022/02/21 04:53:24;;;;;;;2.57;2.00;;;6.20;99.90;;;;;;4864492;29;20366;-82
2022/02/21 04:56:08;;;;;;;1.90;1.35;;;6.30;99.90;;;;;;4863116;29;20496;-81
2022/02/21 04:58:53;;;;;;;1.20;1.10;;;6.30;99.90;;;;;;4864917;29;20223;-82
2022/02/21 05:01:37;;;;;;;0.90;0.90;;;6.30;99.90;;;;;;4854098;29;20440;-81
2022/02/21 05:04:22;;;;;;;2.50;1.20;;;6.30;99.90;;;;;;4868248;29;20399;-82
2022/02/21 05:07:06;;;;;;;1.97;1.23;;;6.30;99.90;;;;;;4866770;29;20407;-81
2022/02/21 05:09:51;;;;;;;1.20;1.10;;;6.30;99.90;;;;;;4867451;29;20440;-82
2022/02/21 05:12:35;;;;;;;1.37;1.27;;;6.20;99.90;;;;;;4867601;29;20991;-82
2022/02/21 05:15:20;;;;;;;1.73;1.43;;;6.30;99.90;;;;;;4867874;29;20391;-80
2022/02/21 05:18:04;;;;;;;5.33;1.53;;;6.30;99.90;;;;;;4867875;29;20428;-82
2022/02/21 05:20:49;;;;;;;2.00;1.40;;;6.30;99.90;;;;;;4867750;29;20445;-81
2022/02/21 05:23:34;;;;;;;1.20;1.10;;;6.30;99.90;;;;;;4867872;29;20483;-81
2022/02/21 05:26:19;;;;;;;0.90;0.90;;;6.40;99.90;;;;;;4853211;29;20514;-81
2022/02/21 05:29:03;;;;;;;2.00;1.40;;;6.20;99.90;;;;;;4867495;29;20382;-81
2022/02/21 05:31:48;;;;;;;4.90;1.50;;;6.20;99.90;;;;;;4866273;29;20453;-81
2022/02/21 05:34:32;;;;;;;6.40;1.70;;;6.30;99.90;;;;;;4866417;29;20394;-81
2022/02/21 05:37:17;;;;;;;1.33;1.10;;;6.30;99.90;;;;;;4867037;29;20402;-82
2022/02/21 05:40:03;;;;;;;2.30;1.57;;;6.30;99.90;;;;;;4878919;29;20407;-81
2022/02/21 05:42:47;;;;;;;2.50;1.60;;;6.30;99.90;;;;;;4867223;29;20460;-81
2022/02/21 05:45:32;;;;;;;1.57;1.30;;;6.30;99.90;;;;;;4879578;29;20923;-80
2022/02/21 05:48:16;;;;;;;1.53;1.43;;;6.40;99.90;;;;;;4866977;29;20407;-80
2022/02/21 05:51:01;;;;;;;5.43;1.20;;;6.40;99.90;;;;;;4866300;29;20454;-81
2022/02/21 05:53:47;;;;;;;2.10;1.30;;;6.50;99.90;;;;;;4866731;29;20414;-81
2022/02/21 05:56:32;;;;;;;1.50;1.30;;;6.50;99.90;;;;;;4864420;29;20487;-83
2022/02/21 05:59:17;;;;;;;1.50;1.40;;;6.50;99.90;;;;;;4879132;29;20415;-83
2022/02/21 06:02:01;;;;;;;1.63;1.50;;;6.50;99.90;;;;;;4867502;29;20401;-82
2022/02/21 06:04:46;;;;;;;1.20;1.10;;;6.30;99.90;;;;;;4867331;29;20395;-81
2022/02/21 06:07:30;;;;;;;2.10;1.30;;;6.40;99.90;;;;;;4866913;29;20916;-81
2022/02/21 06:10:15;;;;;;;2.60;2.40;;;6.40;99.90;;;;;;4866092;29;20479;-82
2022/02/21 06:16:33;;;;;;;7.00;1.17;;;6.30;99.90;;;;;;4800792;29;20410;-82
2022/02/21 06:19:19;;;;;;;3.20;1.80;;;6.30;99.90;;;;;;4791907;30;20537;-81
2022/02/21 06:22:03;;;;;;;1.60;1.50;;;6.40;99.90;;;;;;4804186;29;20415;-82
2022/02/21 06:24:48;;;;;;;3.53;1.40;;;6.50;99.90;;;;;;4792038;29;20986;-82
2022/02/21 06:27:32;;;;;;;1.73;1.63;;;6.50;99.90;;;;;;4791899;30;20437;-82
2022/02/21 06:30:17;;;;;;;1.97;1.30;;;6.50;99.90;;;;;;4791710;29;20397;-81
2022/02/21 06:33:02;;;;;;;5.00;1.30;;;6.40;99.90;;;;;;4791822;30;20406;-82
2022/02/21 06:35:47;;;;;;;1.93;1.20;;;6.40;99.90;;;;;;4790590;29;20909;-81
2022/02/21 06:38:32;;;;;;;1.13;1.03;;;6.20;99.90;;;;;;4790383;30;20780;-82
2022/02/21 06:41:16;;;;;;;2.27;1.67;;;6.30;99.90;;;;;;4791623;29;20931;-82
2022/02/21 06:44:01;;;;;;;1.43;1.33;;;6.30;99.90;;;;;;4790307;30;20728;-82
2022/02/21 06:46:46;;;;;;;2.73;2.53;;;6.30;99.90;;;;;;4838982;29;20426;-82
2022/02/21 06:49:30;;;;;;;1.63;1.10;;;6.30;99.90;;;;;;4862409;29;20418;-81
2022/02/21 06:52:14;;;;;;;1.40;1.30;;;6.40;99.90;;;;;;4870377;29;20522;-81
2022/02/21 06:54:59;;;;;;;13.33;1.53;;;6.30;99.90;;;;;;4862931;29;20466;-81
2022/02/21 06:57:47;;;;;;;1.50;1.40;;;6.30;99.90;;;;;;4866071;29;20432;-81
2022/02/21 07:00:31;;;;;;;7.27;1.70;;;6.40;99.90;;;;;;4874987;29;20964;-82
2022/02/21 07:03:16;;;;;;;4.73;1.67;;;6.50;99.90;;;;;;4862103;29;20427;-82
2022/02/21 07:06:00;;;;;;;7.60;1.27;;;6.40;99.90;;;;;;4875243;29;20481;-81
2022/02/21 07:08:45;;;;;;;7.23;1.93;;;6.50;99.90;;;;;;4863378;29;20459;-81
2022/02/21 07:11:30;;;;;;;1.70;1.20;;;6.40;99.90;;;;;;4867031;29;20470;-80
2022/02/21 07:14:15;;;;;;;2.47;1.30;;;6.40;99.90;;;;;;4871229;29;20440;-82
2022/02/21 07:16:59;;;;;;;8.13;1.77;;;6.40;99.90;;;;;;4865854;29;20498;-81
2022/02/21 07:19:44;;;;;;;6.00;1.90;;;6.30;99.90;;;;;;4866670;29;20414;-82
2022/02/21 07:22:28;;;;;;;5.33;1.83;;;6.30;99.90;;;;;;4866493;29;20475;-82
2022/02/21 07:25:15;;;;;;;1.17;1.07;;;6.40;99.90;;;;;;4861610;29;20414;-80
2022/02/21 07:28:00;;;;;;;5.40;1.93;;;6.40;99.90;;;;;;4862043;29;20479;-82
2022/02/21 07:30:44;;;;;;;8.33;2.03;;;6.30;99.90;;;;;;4862029;29;20432;-82
2022/02/21 07:33:29;;;;;;;1.50;1.40;;;6.20;99.90;;;;;;4848240;29;20480;-81
2022/02/21 07:36:14;;;;;;;2.60;1.10;;;6.30;99.90;;;;;;4858814;29;20515;-81
2022/02/21 07:38:58;;;;;;;5.63;1.30;;;6.30;99.90;;;;;;4861675;29;20438;-81
2022/02/21 07:41:43;;;;;;;2.77;1.70;;;6.30;99.90;;;;;;4859427;29;20421;-81
2022/02/21 07:44:28;;;;;;;3.90;1.60;;;6.40;99.90;;;;;;4865453;29;20434;-81
2022/02/21 07:47:12;;;;;;;3.53;2.03;;;6.30;99.90;;;;;;4862482;29;20450;-81
2022/02/21 07:49:57;;;;;;;3.80;1.30;;;6.50;99.90;;;;;;4865923;29;20474;-79
2022/02/21 07:52:42;;;;;;;1.87;1.77;;;6.30;99.90;;;;;;4868955;29;20482;-82
2022/02/21 07:55:27;;;;;;;13.43;2.50;;;6.20;99.90;;;;;;4861744;29;20577;-82
2022/02/21 07:58:11;;;;;;;7.63;2.33;;;6.30;99.90;;;;;;4853690;29;20599;-82
2022/02/21 08:00:56;;;;;;;1.77;1.33;;;6.30;99.90;;;;;;4862188;29;20798;-82
2022/02/21 08:03:41;;;;;;;3.23;1.53;;;6.20;99.90;;;;;;4874247;29;20434;-82
2022/02/21 08:06:25;;;;;;;6.53;2.00;;;6.40;99.90;;;;;;4875425;29;20471;-81
2022/02/21 08:09:10;;;;;;;3.80;2.17;;;6.50;99.90;;;;;;4867757;29;20413;-80
2022/02/21 08:11:55;;;;;;;2.60;1.50;;;6.60;99.90;;;;;;4863845;29;20651;-80
2022/02/21 08:14:39;;;;;;;4.00;1.30;;;6.50;99.90;;;;;;4864089;29;20444;-80
2022/02/21 08:17:26;;;;;;;4.90;1.70;;;6.60;99.90;;;;;;4862864;29;20423;-81
2022/02/21 08:20:13;;;;;;;6.67;2.90;;;6.80;99.90;;;;;;4861203;29;20805;-82
2022/02/21 08:22:57;;;;;;;9.30;2.20;;;6.80;99.90;;;;;;4856891;29;20457;-81
2022/02/21 08:25:42;;;;;;;7.13;1.90;;;6.60;99.90;;;;;;4862853;29;20467;-80
2022/02/21 08:28:27;;;;;;;1.73;1.57;;;6.90;99.90;;;;;;4861506;29;20467;-81
2022/02/21 08:31:12;;;;;;;5.63;2.00;;;7.10;99.90;;;;;;4861216;29;20466;-82
2022/02/21 08:33:57;;;;;;;2.27;2.07;;;7.40;99.90;;;;;;4861596;29;20430;-82
2022/02/21 08:36:42;;;;;;;2.13;1.43;;;7.50;99.90;;;;;;4867082;29;20405;-82
2022/02/21 08:39:26;;;;;;;6.10;2.40;;;7.50;99.90;;;;;;4864820;29;20454;-82
2022/02/21 08:42:11;;;;;;;2.90;2.07;;;7.80;99.90;;;;;;4870323;29;20466;-81
2022/02/21 08:44:57;;;;;;;2.50;1.63;;;8.10;99.90;;;;;;4870545;29;20453;-82
2022/02/21 08:47:42;;;;;;;12.23;2.90;;;8.30;99.90;;;;;;4868531;29;21093;-81
2022/02/21 08:50:26;;;;;;;4.60;1.90;;;8.50;99.90;;;;;;4870700;29;20508;-81
2022/02/21 08:53:11;;;;;;;3.23;1.97;;;8.70;99.90;;;;;;4868542;29;20440;-82
2022/02/21 08:55:56;;;;;;;8.60;2.80;;;8.70;99.90;;;;;;4869047;29;20550;-81
2022/02/21 08:58:41;;;;;;;5.90;2.40;;;8.50;99.90;;;;;;4869243;29;20456;-81
2022/02/21 09:01:26;;;;;;;14.17;5.80;;;8.30;99.90;;;;;;4868897;29;20431;-80
2022/02/21 09:04:12;;;;;;;4.97;2.90;;;8.80;99.90;;;;;;4861214;29;20440;-81
2022/02/21 09:06:56;;;;;;;3.00;2.03;;;8.90;99.90;;;;;;4872895;29;20434;-81
2022/02/21 09:09:41;;;;;;;3.63;1.87;;;9.20;99.90;;;;;;4871103;29;20451;-81
2022/02/21 09:12:27;;;;;;;6.63;1.97;;;9.20;99.90;;;;;;4877577;29;20481;-81
2022/02/21 09:15:12;;;;;;;4.00;2.10;;;9.10;99.90;;;;;;4860783;29;20979;-81
2022/02/21 09:17:57;;;;;;;2.13;1.67;;;9.80;99.90;;;;;;4872331;29;20431;-81
2022/02/21 09:20:41;;;;;;;6.20;2.90;;;9.50;99.90;;;;;;4885991;29;20427;-79
2022/02/21 09:23:26;;;;;;;3.77;2.00;;;9.80;99.90;;;;;;4874722;29;20438;-79
2022/02/21 09:26:11;;;;;;;5.27;1.57;;;9.20;99.90;;;;;;4858876;29;20437;-79
2022/02/21 09:28:58;;;;;;;5.17;2.23;;;8.80;99.90;;;;;;4877100;29;20423;-79
2022/02/21 09:31:44;;;;;;;2.40;1.80;;;8.30;99.90;;;;;;4866165;29;20564;-80
2022/02/21 09:34:28;;;;;;;8.60;2.37;;;8.50;99.90;;;;;;4875983;29;20448;-80
2022/02/21 09:37:13;;;;;;;2.33;1.73;;;9.40;99.90;;;;;;4867267;29;20412;-81
2022/02/21 09:39:57;;;;;;;4.33;2.40;;;10.30;99.90;;;;;;4860436;29;20422;-80
2022/02/21 09:42:43;;;;;;;3.47;1.93;;;10.10;99.90;;;;;;4871170;29;20485;-81
2022/02/21 09:45:29;;;;;;;6.40;2.40;;;10.10;99.90;;;;;;4869134;29;20779;-80
2022/02/21 09:48:36;;;;;;;2.50;1.63;;;10.30;99.90;;;;;;4868942;29;20498;-80
2022/02/21 09:51:21;;;;;;;6.67;2.17;;;11.30;99.90;;;;;;4859072;29;20579;-79
2022/02/21 09:54:07;;;;;;;4.70;1.57;;;10.90;99.90;;;;;;4859352;29;20402;-80
2022/02/21 09:56:51;;;;;;;3.23;2.00;;;10.70;99.90;;;;;;4842628;29;20455;-80
2022/02/21 09:59:37;;;;;;;5.03;2.10;;;10.60;99.90;;;;;;4854894;29;20460;-79
2022/02/21 10:02:29;;;;;;;1.57;1.47;;;11.20;99.90;;;;;;4858335;29;20496;-79
2022/02/21 10:05:18;;;;;;;2.93;2.03;;;11.00;99.90;;;;;;4852061;29;20940;-80
2022/02/21 10:08:07;;;;;;;11.77;2.20;;;10.40;99.90;;;;;;4848796;29;20471;-79
2022/02/21 10:10:54;;;;;;;5.67;1.90;;;11.10;99.90;;;;;;4840593;29;20495;-81
2022/02/21 10:13:53;;;;;;;4.97;2.13;;;11.80;99.90;;;;;;4842877;29;20512;-81
2022/02/21 10:16:44;;;;;;;5.10;2.07;;;11.80;99.90;;;;;;4842893;29;20504;-80
2022/02/21 10:19:36;;;;;;;4.60;2.27;;;13.00;99.90;;;;;;4842962;29;20484;-82
2022/02/21 10:22:23;;;;;;;4.33;1.93;;;13.10;99.10;;;;;;4867078;29;20443;-79
2022/02/21 10:25:21;;;;;;;3.90;1.77;;;13.00;97.60;;;;;;4860351;29;20471;-79
2022/02/21 10:28:05;;;;;;;1.87;1.70;;;14.50;94.90;;;;;;4875074;29;20507;-80
2022/02/21 10:31:08;;;;;;;2.13;1.77;;;14.40;93.40;;;;;;4866054;29;20425;-80
2022/02/21 10:34:09;;;;;;;2.20;1.70;;;15.40;91.40;;;;;;4870216;29;20422;-79
2022/02/21 10:36:54;;;;;;;4.53;1.30;;;13.00;92.10;;;;;;4858402;29;20479;-81
2022/02/21 10:39:38;;;;;;;5.60;2.40;;;12.80;93.40;;;;;;4869456;29;20423;-81
2022/02/21 10:42:26;;;;;;;4.60;1.80;;;11.90;93.90;;;;;;4865717;29;20452;-80
2022/02/21 10:45:16;;;;;;;12.10;3.30;;;12.30;94.40;;;;;;4874563;29;20449;-80
2022/02/21 10:48:11;;;;;;;4.83;2.97;;;11.60;95.20;;;;;;4870516;29;21426;-80
2022/02/21 10:50:58;;;;;;;2.90;2.70;;;10.40;97.00;;;;;;4860929;29;20566;-79
2022/02/21 10:53:49;;;;;;;6.97;2.47;;;10.90;96.00;;;;;;4863120;29;20438;-79
2022/02/21 10:56:41;;;;;;;3.13;2.30;;;10.60;96.20;;;;;;4868448;29;20486;-80
2022/02/21 10:59:29;;;;;;;1.50;1.30;;;10.40;95.90;;;;;;4872475;29;20526;-81
2022/02/21 11:02:16;;;;;;;4.13;2.47;;;11.80;95.60;;;;;;4855447;29;20956;-82
2022/02/21 11:05:01;;;;;;;3.43;1.60;;;11.50;94.80;;;;;;4865603;29;20438;-81
2022/02/21 11:07:47;;;;;;;3.87;1.90;;;12.40;92.30;;;;;;4874050;29;20446;-82
2022/02/21 11:10:33;;;;;;;4.37;1.93;;;12.30;91.10;;;;;;4871012;29;20422;-80
2022/02/21 11:13:20;;;;;;;2.30;1.57;;;13.60;91.40;;;;;;4863060;29;20458;-81
2022/02/21 11:16:05;;;;;;;1.77;1.53;;;14.30;86.80;;;;;;4872724;29;20433;-80
2022/02/21 11:18:50;;;;;;;2.37;1.30;;;14.10;82.10;;;;;;4841104;29;20447;-80
2022/02/21 11:21:36;;;;;;;2.40;1.80;;;13.80;85.90;;;;;;4860977;29;20464;-80
2022/02/21 11:24:24;;;;;;;3.07;1.30;;;14.10;79.30;;;;;;4852510;29;20475;-81
2022/02/21 11:27:26;;;;;;;4.00;1.40;;;14.90;80.10;;;;;;4871362;29;20446;-81
2022/02/21 11:30:17;;;;;;;4.80;2.23;;;14.70;82.30;;;;;;4876621;29;20951;-81
2022/02/21 11:33:05;;;;;;;5.00;1.90;;;14.30;77.20;;;;;;4863332;29;20483;-81
2022/02/21 11:36:12;;;;;;;2.40;1.60;;;14.10;76.60;;;;;;4850870;29;20425;-81
2022/02/21 11:38:57;;;;;;;2.03;1.40;;;14.70;78.90;;;;;;4862562;29;20422;-81
2022/02/21 11:41:42;;;;;;;2.33;1.53;;;14.60;76.00;;;;;;4865258;29;20415;-80
2022/02/21 11:44:27;;;;;;;4.10;1.93;;;15.00;74.70;;;;;;4859041;29;20757;-81
2022/02/21 11:47:32;;;;;;;1.67;1.50;;;16.30;72.40;;;;;;4857597;29;20434;-81
2022/02/21 11:50:25;;;;;;;6.20;1.87;;;15.00;71.10;;;;;;4862577;29;20438;-81
2022/02/21 11:53:38;;;;;;;2.10;1.40;;;14.70;71.50;;;;;;4845003;29;20431;-79
2022/02/21 11:56:56;;;;;;;4.63;1.67;;;15.20;73.90;;;;;;4845962;29;20481;-81
2022/02/21 11:59:40;;;;;;;3.37;1.50;;;15.20;73.20;;;;;;4861253;29;20508;-79
2022/02/21 12:02:25;;;;;;;2.37;1.83;;;13.90;76.40;;;;;;4851079;29;20433;-80
2022/02/21 12:05:21;;;;;;;6.63;2.20;;;12.40;82.60;;;;;;4866917;29;20435;-79
2022/02/21 12:08:36;;;;;;;2.20;1.30;;;13.60;84.60;;;;;;4861573;29;20439;-79
2022/02/21 12:11:21;;;;;;;1.50;1.40;;;13.00;82.20;;;;;;4863182;29;20546;-79
2022/02/21 12:14:17;;;;;;;5.10;1.70;;;11.60;88.10;;;;;;4849493;29;20551;-79
2022/02/21 12:17:06;;;;;;;5.27;1.30;;;10.70;91.80;;;;;;4857134;29;21004;-80
2022/02/21 12:19:51;;;;;;;1.57;1.27;;;10.90;91.60;;;;;;4871375;29;20410;-81
2022/02/21 12:22:35;;;;;;;1.60;1.50;;;10.70;93.40;;;;;;4881220;29;20479;-80
2022/02/21 12:25:21;;;;;;;1.40;1.30;;;10.60;92.90;;;;;;4886277;29;20487;-79
2022/02/21 12:28:12;;;;;;;2.60;1.90;;;10.50;92.50;;;;;;4860422;29;20538;-80
2022/02/21 12:30:57;;;;;;;1.60;1.50;;;10.20;94.60;;;;;;4882805;29;20610;-79
2022/02/21 12:33:42;;;;;;;3.10;1.70;;;10.20;95.70;;;;;;4871236;29;20888;-77
2022/02/21 12:36:38;;;;;;;1.20;1.10;;;9.90;97.10;;;;;;4868060;29;20503;-80
2022/02/21 12:39:26;;;;;;;1.47;1.37;;;9.80;99.20;;;;;;4868785;29;21148;-81
2022/02/21 12:42:11;;;;;;;1.63;1.30;;;10.10;98.40;;;;;;4865234;29;20455;-80
2022/02/21 12:44:56;;;;;;;2.30;1.55;;;10.70;98.30;;;;;;4864693;29;20443;-81
2022/02/21 12:47:40;;;;;;;1.67;1.30;;;11.80;94.80;;;;;;4867670;29;20231;-80
2022/02/21 12:50:25;;;;;;;2.23;1.60;;;11.60;91.90;;;;;;4864480;29;20444;-80
2022/02/21 12:53:10;;;;;;;4.50;1.50;;;11.10;92.00;;;;;;4864829;29;20466;-80
2022/02/21 12:55:59;;;;;;;2.60;1.10;;;11.30;91.10;;;;;;4863992;29;20481;-81
2022/02/21 12:58:48;;;;;;;1.63;1.27;;;12.00;91.30;;;;;;4862653;29;20438;-79
2022/02/21 13:01:32;;;;;;;6.63;1.40;;;11.70;90.30;;;;;;4861275;29;20479;-80
2022/02/21 13:04:19;;;;;;;1.37;1.27;;;11.90;87.80;;;;;;4860297;29;20466;-81
2022/02/21 13:07:08;;;;;;;1.53;1.43;;;11.80;90.50;;;;;;4861229;29;20406;-85
2022/02/21 13:09:53;;;;;;;4.73;1.27;;;11.20;91.70;;;;;;4863735;29;20545;-82
2022/02/21 13:12:39;;;;;;;1.53;1.30;;;10.50;94.20;;;;;;4849931;29;20472;-81
2022/02/21 13:15:24;;;;;;;1.40;1.23;;;10.10;96.80;;;;;;4866904;29;20423;-80
2022/02/21 13:18:08;;;;;;;3.47;1.37;;;10.50;99.90;;;;;;4865891;29;20499;-80
2022/02/21 13:20:58;;;;;;;7.10;1.50;;;10.30;99.90;;;;;;4863209;29;20422;-81
2022/02/21 13:23:43;;;;;;;1.83;1.17;;;10.30;99.90;;;;;;4860288;29;20814;-80
2022/02/21 13:26:39;;;;;;;2.57;1.70;;;10.60;99.90;;;;;;4860950;29;20422;-80
2022/02/21 13:29:27;;;;;;;4.80;1.73;;;10.30;99.90;;;;;;4862668;29;20433;-81
2022/02/21 13:32:42;;;;;;;3.77;1.40;;;10.50;99.90;;;;;;4862094;29;20828;-80
2022/02/21 13:35:28;;;;;;;1.30;1.20;;;10.10;99.90;;;;;;4860814;29;20472;-81
2022/02/21 13:38:19;;;;;;;2.70;1.33;;;10.60;99.90;;;;;;4861035;29;20448;-80
2022/02/21 13:41:04;;;;;;;5.47;2.27;;;10.30;99.20;;;;;;4861887;29;20440;-81
2022/02/21 13:43:48;;;;;;;1.50;1.40;;;10.60;99.90;;;;;;4864273;29;20446;-82
2022/02/21 13:46:44;;;;;;;2.77;1.40;;;10.80;99.90;;;;;;4863519;29;20487;-83
2022/02/21 13:49:37;;;;;;;1.33;1.23;;;10.20;99.90;;;;;;4864207;29;20446;-82
2022/02/21 13:52:22;;;;;;;3.37;1.77;;;10.30;99.90;;;;;;4864382;29;20464;-82
2022/02/21 13:55:22;;;;;;;3.40;1.97;;;10.10;99.90;;;;;;4861829;29;21005;-82
2022/02/21 13:58:10;;;;;;;7.47;1.43;;;9.40;99.90;;;;;;4875877;29;20453;-82
2022/02/21 14:01:05;;;;;;;4.00;1.30;;;9.30;99.90;;;;;;4864886;29;20442;-81
2022/02/21 14:03:51;;;;;;;4.70;2.50;;;8.70;99.90;;;;;;4860775;29;20482;-81
2022/02/21 14:06:38;;;;;;;6.83;1.57;;;8.90;99.90;;;;;;4859757;29;20519;-81
2022/02/21 14:09:22;;;;;;;4.17;1.90;;;8.40;99.90;;;;;;4860523;29;20519;-81
2022/02/21 14:12:12;;;;;;;2.23;1.20;;;8.40;99.90;;;;;;4860024;29;20978;-81
2022/02/21 14:14:58;;;;;;;1.30;1.20;;;8.10;99.90;;;;;;4864974;29;20776;-81
2022/02/21 14:17:43;;;;;;;3.70;1.97;;;8.30;99.90;;;;;;4849969;29;20430;-81
2022/02/21 14:20:27;;;;;;;1.50;1.40;;;8.30;99.90;;;;;;4869506;29;20954;-80
2022/02/21 14:23:12;;;;;;;2.57;1.47;;;8.50;99.90;;;;;;4872653;29;20431;-81
2022/02/21 14:25:57;;;;;;;5.03;1.40;;;8.50;99.90;;;;;;4872584;29;20466;-81
2022/02/21 14:28:41;;;;;;;3.23;1.77;;;8.60;99.90;;;;;;4855374;29;20421;-81
2022/02/21 14:31:26;;;;;;;2.03;1.50;;;8.20;99.90;;;;;;4847973;29;20510;-81
2022/02/21 14:34:11;;;;;;;2.93;1.30;;;8.40;99.90;;;;;;4862163;29;20426;-81
2022/02/21 14:36:58;;;;;;;1.57;1.40;;;8.30;99.90;;;;;;4862922;29;20996;-82